Time;durP1;ratioP1;P1;durP2;ratioP2;P2;SDS_P1;SDS_P2;PMS_P1;PMS_P2;Temp;Humidity;BMP_temperature;BMP_pressure;BME280_temperature;BME280_humidity;BME280_pressure;Samples;Min_cycle;Max_cycle;Signal;HPM_P1;HPM_P2
2021/07/08 00:00:34;;;;;;;;;;;;;;;16.40;100.00;101493.22;5073957;28;19928;-69
2021/07/08 00:03:00;;;;;;;;;;;;;;;16.36;100.00;101491.78;5054020;28;19924;-68
2021/07/08 00:05:26;;;;;;;;;;;;;;;16.35;100.00;101490.03;5053987;28;19925;-69
2021/07/08 00:07:56;;;;;;;;;;;;;;;16.32;100.00;101490.34;5054190;28;19971;-69
2021/07/08 00:10:29;;;;;;;;;;;;;;;16.28;100.00;101488.91;5053904;28;20022;-68
2021/07/08 00:12:56;;;;;;;;;;;;;;;16.28;100.00;101483.41;5053950;28;20015;-68
2021/07/08 00:15:23;;;;;;;;;;;;;;;16.21;100.00;101475.75;5053882;28;19929;-69
2021/07/08 00:17:49;;;;;;;;;;;;;;;16.20;100.00;101482.25;5053672;28;19925;-69
2021/07/08 00:20:18;;;;;;;;;;;;;;;16.19;100.00;101476.91;5053615;28;19929;-69
2021/07/08 00:22:45;;;;;;;;;;;;;;;16.11;100.00;101477.63;5053773;28;20391;-69
2021/07/08 00:25:14;;;;;;;;;;;;;;;16.01;100.00;101477.63;5053819;28;19929;-69
2021/07/08 00:27:41;;;;;;;;;;;;;;;15.93;100.00;101479.31;5053444;28;19925;-69
2021/07/08 00:30:11;;;;;;;;;;;;;;;15.84;100.00;101479.16;5053706;28;20364;-68
2021/07/08 00:32:40;;;;;;;;;;;;;;;15.85;100.00;101480.06;5053719;28;19924;-69
2021/07/08 00:35:07;;;;;;;;;;;;;;;15.83;100.00;101477.47;5053450;28;19992;-69
2021/07/08 00:37:33;;;;;;;;;;;;;;;15.80;100.00;101479.56;5053339;28;19951;-69
2021/07/08 00:39:59;;;;;;;;;;;;;;;15.74;100.00;101476.38;5052918;28;20014;-69
2021/07/08 00:42:27;;;;;;;;;;;;;;;15.68;100.00;101470.59;5052305;28;19929;-68
2021/07/08 00:44:53;;;;;;;;;;;;;;;15.62;100.00;101476.63;5053269;28;19925;-69
2021/07/08 00:47:19;;;;;;;;;;;;;;;15.52;100.00;101472.00;5053369;28;19960;-69
2021/07/08 00:49:46;;;;;;;;;;;;;;;15.46;100.00;101468.94;5053284;28;19929;-69
2021/07/08 00:52:12;;;;;;;;;;;;;;;15.38;100.00;101458.72;5053180;28;19925;-70
2021/07/08 00:54:39;;;;;;;;;;;;;;;15.31;100.00;101463.00;5052008;28;19925;-69
2021/07/08 00:57:06;;;;;;;;;;;;;;;15.26;100.00;101473.47;5051249;28;19924;-69
2021/07/08 00:59:41;;;;;;;;;;;;;;;15.20;100.00;101467.53;5053407;28;20403;-68
2021/07/08 01:02:08;;;;;;;;;;;;;;;15.17;100.00;101470.56;5052952;28;20336;-69
2021/07/08 01:04:34;;;;;;;;;;;;;;;15.16;100.00;101466.09;5052954;28;20422;-68
2021/07/08 01:07:01;;;;;;;;;;;;;;;15.12;100.00;101461.91;5053455;28;20387;-68
2021/07/08 01:09:27;;;;;;;;;;;;;;;15.12;100.00;101459.16;5052949;28;19924;-68
2021/07/08 01:11:53;;;;;;;;;;;;;;;15.13;100.00;101451.84;5052848;28;19960;-68
2021/07/08 01:14:19;;;;;;;;;;;;;;;15.13;100.00;101457.31;5052802;28;20448;-69
2021/07/08 01:16:47;;;;;;;;;;;;;;;15.10;100.00;101455.72;5052339;28;20392;-69
2021/07/08 01:19:13;;;;;;;;;;;;;;;15.03;100.00;101458.13;5052765;28;19956;-69
2021/07/08 01:21:41;;;;;;;;;;;;;;;15.05;100.00;101463.47;5052539;28;20450;-69
2021/07/08 01:24:08;;;;;;;;;;;;;;;15.04;100.00;101459.00;5052682;28;19986;-69
2021/07/08 01:26:38;;;;;;;;;;;;;;;15.00;100.00;101454.78;5052472;28;20343;-69
2021/07/08 01:29:04;;;;;;;;;;;;;;;14.95;100.00;101459.81;5052841;28;20178;-69
2021/07/08 01:31:31;;;;;;;;;;;;;;;14.94;100.00;101467.16;5052248;28;20009;-69
2021/07/08 01:33:57;;;;;;;;;;;;;;;14.93;100.00;101459.09;5052337;28;19924;-69
2021/07/08 01:36:23;;;;;;;;;;;;;;;14.87;100.00;101466.81;5052220;28;20017;-68
2021/07/08 01:38:51;;;;;;;;;;;;;;;14.84;100.00;101466.22;5050827;28;19928;-68
2021/07/08 01:41:17;;;;;;;;;;;;;;;14.80;100.00;101467.50;5052302;28;19928;-68
2021/07/08 01:43:44;;;;;;;;;;;;;;;14.80;100.00;101472.97;5052071;28;19964;-68
2021/07/08 01:46:12;;;;;;;;;;;;;;;14.77;100.00;101463.16;5052509;28;19924;-68
2021/07/08 01:48:38;;;;;;;;;;;;;;;14.75;100.00;101467.88;5052235;28;19986;-68
2021/07/08 01:51:06;;;;;;;;;;;;;;;14.80;100.00;101472.97;5052033;28;20063;-69
2021/07/08 01:53:33;;;;;;;;;;;;;;;14.77;100.00;101475.97;5052005;28;19956;-68
2021/07/08 01:56:00;;;;;;;;;;;;;;;14.76;100.00;101469.63;5071434;28;19971;-68
2021/07/08 01:58:27;;;;;;;;;;;;;;;14.77;100.00;101487.75;5072131;28;19928;-68
2021/07/08 02:00:53;;;;;;;;;;;;;;;14.79;100.00;101484.88;5071821;28;19959;-68
2021/07/08 02:03:19;;;;;;;;;;;;;;;14.78;100.00;101483.13;5071679;28;19948;-68
2021/07/08 02:05:46;;;;;;;;;;;;;;;14.82;100.00;101485.50;5071890;28;19936;-68
2021/07/08 02:08:12;;;;;;;;;;;;;;;14.88;100.00;101478.59;5071663;28;19978;-68
2021/07/08 02:10:38;;;;;;;;;;;;;;;14.87;100.00;101474.13;5071780;28;19970;-68
2021/07/08 02:13:06;;;;;;;;;;;;;;;14.85;100.00;101462.50;5071434;28;19939;-68
2021/07/08 02:15:33;;;;;;;;;;;;;;;14.82;100.00;101466.34;5071839;28;20384;-68
2021/07/08 02:17:59;;;;;;;;;;;;;;;14.80;100.00;101467.50;5070247;28;19978;-68
2021/07/08 02:20:26;;;;;;;;;;;;;;;14.79;100.00;101474.84;5071675;28;19924;-68
2021/07/08 02:22:52;;;;;;;;;;;;;;;14.79;100.00;101477.56;5071689;28;19924;-68
2021/07/08 02:25:18;;;;;;;;;;;;;;;14.82;100.00;101479.16;5071749;28;19977;-68
2021/07/08 02:27:45;;;;;;;;;;;;;;;14.75;100.00;101484.28;5071616;28;20244;-68
2021/07/08 02:30:13;;;;;;;;;;;;;;;14.70;100.00;101486.56;5071247;28;19932;-68
2021/07/08 02:32:40;;;;;;;;;;;;;;;14.65;100.00;101477.91;5071533;28;19978;-68
2021/07/08 02:35:07;;;;;;;;;;;;;;;14.59;100.00;101481.13;5071610;28;20394;-68
2021/07/08 02:37:34;;;;;;;;;;;;;;;14.52;100.00;101470.75;5071254;28;19924;-68
2021/07/08 02:40:00;;;;;;;;;;;;;;;14.48;100.00;101476.56;5071518;28;19928;-68
2021/07/08 02:42:27;;;;;;;;;;;;;;;14.39;100.00;101479.09;5071530;28;19975;-68
2021/07/08 02:44:53;;;;;;;;;;;;;;;14.33;100.00;101470.56;5071413;28;20391;-68
2021/07/08 02:47:20;;;;;;;;;;;;;;;14.27;100.00;101487.47;5070056;28;19924;-68
2021/07/08 02:49:47;;;;;;;;;;;;;;;14.22;100.00;101480.53;5071537;28;19963;-68
2021/07/08 02:52:13;;;;;;;;;;;;;;;14.20;100.00;101485.28;5071344;28;19951;-68
2021/07/08 02:54:39;;;;;;;;;;;;;;;14.17;100.00;101471.88;5071317;28;20311;-68
2021/07/08 02:57:06;;;;;;;;;;;;;;;14.14;100.00;101483.06;5071243;28;19968;-68
2021/07/08 02:59:32;;;;;;;;;;;;;;;14.13;100.00;101486.78;5070285;28;20132;-68
2021/07/08 03:01:58;;;;;;;;;;;;;;;14.13;100.00;101483.19;5071198;28;19925;-68
2021/07/08 03:04:26;;;;;;;;;;;;;;;14.10;100.00;101478.84;5071420;28;19959;-68
2021/07/08 03:06:52;;;;;;;;;;;;;;;14.08;100.00;101475.38;5070724;28;19985;-68
2021/07/08 03:09:18;;;;;;;;;;;;;;;14.05;100.00;101471.03;5071340;28;19956;-68
2021/07/08 03:11:45;;;;;;;;;;;;;;;14.03;100.00;101481.22;5071079;28;20397;-68
2021/07/08 03:14:11;;;;;;;;;;;;;;;14.04;100.00;101479.34;5071669;28;19977;-68
2021/07/08 03:16:37;;;;;;;;;;;;;;;14.02;100.00;101490.41;5074796;28;19960;-68
2021/07/08 03:19:03;;;;;;;;;;;;;;;14.04;100.00;101488.44;5074928;28;19925;-68
2021/07/08 03:21:31;;;;;;;;;;;;;;;14.06;100.00;101494.63;5075084;28;19959;-68
2021/07/08 03:23:57;;;;;;;;;;;;;;;14.05;100.00;101489.28;5074602;28;19956;-68
2021/07/08 03:26:24;;;;;;;;;;;;;;;14.10;100.00;101495.22;5074947;28;20449;-68
2021/07/08 03:28:50;;;;;;;;;;;;;;;14.13;100.00;101488.66;5074619;28;19967;-68
2021/07/08 03:31:18;;;;;;;;;;;;;;;14.13;100.00;101499.56;5074810;28;19929;-69
2021/07/08 03:33:45;;;;;;;;;;;;;;;14.16;100.00;101500.19;5073630;28;19978;-68
2021/07/08 03:36:11;;;;;;;;;;;;;;;14.16;100.00;101502.91;5074782;28;19928;-68
2021/07/08 03:38:39;;;;;;;;;;;;;;;14.17;100.00;101501.91;5074569;28;19978;-68
2021/07/08 03:41:05;;;;;;;;;;;;;;;14.16;100.00;101499.31;5074394;28;20354;-68
2021/07/08 03:43:31;;;;;;;;;;;;;;;14.19;100.00;101505.38;5074419;28;19955;-68
2021/07/08 03:45:58;;;;;;;;;;;;;;;14.19;100.00;101512.69;5074498;28;19925;-68
2021/07/08 03:48:24;;;;;;;;;;;;;;;14.21;100.00;101506.09;5074347;28;20311;-68
2021/07/08 03:50:50;;;;;;;;;;;;;;;14.24;100.00;101518.63;5073941;28;19924;-68
2021/07/08 03:53:16;;;;;;;;;;;;;;;14.28;100.00;101519.25;5074472;28;19967;-68
2021/07/08 03:55:44;;;;;;;;;;;;;;;14.31;100.00;101519.88;5074195;28;19986;-68
2021/07/08 03:58:10;;;;;;;;;;;;;;;14.39;100.00;101524.66;5074069;28;19964;-69
2021/07/08 04:00:38;;;;;;;;;;;;;;;14.45;100.00;101515.09;5074243;28;19928;-68
2021/07/08 04:03:05;;;;;;;;;;;;;;;14.49;100.00;101513.84;5073923;28;20338;-67
2021/07/08 04:05:32;;;;;;;;;;;;;;;14.52;100.00;101533.56;5074182;28;19926;-67
2021/07/08 04:07:58;;;;;;;;;;;;;;;14.57;100.00;101520.34;5074986;28;19967;-67
2021/07/08 04:10:24;;;;;;;;;;;;;;;14.66;100.00;101517.88;5073696;28;20426;-67
2021/07/08 04:12:52;;;;;;;;;;;;;;;14.71;100.00;101516.47;5076227;28;19928;-67
2021/07/08 04:15:20;;;;;;;;;;;;;;;14.79;100.00;101517.66;5092539;28;19926;-67
2021/07/08 04:17:47;;;;;;;;;;;;;;;14.89;100.00;101522.19;5062682;28;20406;-67
2021/07/08 04:20:15;;;;;;;;;;;;;;;15.02;100.00;101530.22;5073770;28;19947;-67
2021/07/08 04:22:41;;;;;;;;;;;;;;;15.13;100.00;101525.69;5073729;28;19924;-67
2021/07/08 04:25:08;;;;;;;;;;;;;;;15.26;100.00;101520.84;5073554;28;19981;-67
2021/07/08 04:27:35;;;;;;;;;;;;;;;15.34;100.00;101528.34;5074059;28;19925;-67
2021/07/08 04:30:04;;;;;;;;;;;;;;;15.41;100.00;101515.88;5073544;28;19932;-67
2021/07/08 04:32:31;;;;;;;;;;;;;;;15.50;100.00;101514.16;5074701;28;19963;-67
2021/07/08 04:34:57;;;;;;;;;;;;;;;15.54;100.00;101513.78;5073304;28;19928;-67
2021/07/08 04:37:24;;;;;;;;;;;;;;;15.61;100.00;101515.97;5089470;28;19970;-67
2021/07/08 04:39:50;;;;;;;;;;;;;;;15.66;100.00;101519.13;5081573;28;20019;-67
2021/07/08 04:42:17;;;;;;;;;;;;;;;15.73;100.00;101512.13;5073574;28;19925;-67
2021/07/08 04:44:44;;;;;;;;;;;;;;;15.78;100.00;101515.31;5086891;28;20341;-67
2021/07/08 04:47:12;;;;;;;;;;;;;;;15.80;100.00;101516.03;5092179;28;19982;-67
2021/07/08 04:49:38;;;;;;;;;;;;;;;15.80;100.00;101506.94;5078906;28;20030;-67
2021/07/08 04:52:05;;;;;;;;;;;;;;;15.80;100.00;101513.31;5092979;28;19943;-67
2021/07/08 04:54:32;;;;;;;;;;;;;;;15.83;100.00;101512.16;5072865;28;19924;-67
2021/07/08 04:56:58;;;;;;;;;;;;;;;15.88;100.00;101516.19;5072956;28;19963;-66
2021/07/08 04:59:24;;;;;;;;;;;;;;;15.95;100.00;101515.66;5085752;28;19971;-66
2021/07/08 05:01:51;;;;;;;;;;;;;;;16.02;100.00;101508.59;5090630;28;20151;-66
2021/07/08 05:04:18;;;;;;;;;;;;;;;16.10;100.00;101505.16;5091375;28;19989;-67
2021/07/08 05:06:45;;;;;;;;;;;;;;;16.20;100.00;101509.63;5092855;28;19924;-67
2021/07/08 05:09:11;;;;;;;;;;;;;;;16.30;100.00;101500.56;5091736;28;19959;-67
2021/07/08 05:11:37;;;;;;;;;;;;;;;16.37;100.00;101504.47;5092674;28;20354;-67
2021/07/08 05:14:03;;;;;;;;;;;;;;;16.46;100.00;101509.09;5086007;28;19925;-67
2021/07/08 05:16:30;;;;;;;;;;;;;;;16.57;100.00;101505.34;5071018;28;19956;-67
2021/07/08 05:18:56;;;;;;;;;;;;;;;16.74;100.00;101495.47;5064132;28;19971;-65
2021/07/08 05:21:24;;;;;;;;;;;;;;;17.02;100.00;101499.25;5080449;28;19924;-67
2021/07/08 05:23:52;;;;;;;;;;;;;;;17.31;100.00;101489.19;5092944;28;19969;-67
2021/07/08 05:26:18;;;;;;;;;;;;;;;17.56;100.00;101482.13;5084777;28;19929;-67
2021/07/08 05:28:44;;;;;;;;;;;;;;;17.88;100.00;101473.41;5072334;28;20001;-67
2021/07/08 05:31:11;;;;;;;;;;;;;;;18.22;100.00;101469.16;5073335;28;19925;-67
2021/07/08 05:33:37;;;;;;;;;;;;;;;18.45;100.00;101469.53;5073256;28;19974;-68
2021/07/08 05:36:03;;;;;;;;;;;;;;;18.67;100.00;101459.91;5071068;28;19932;-66
2021/07/08 05:38:31;;;;;;;;;;;;;;;18.92;100.00;101459.25;5072733;28;20333;-68
2021/07/08 05:40:57;;;;;;;;;;;;;;;19.12;100.00;101455.28;5070865;28;19929;-68
2021/07/08 05:43:23;;;;;;;;;;;;;;;19.31;100.00;101465.19;5074618;28;20395;-69
2021/07/08 05:45:50;;;;;;;;;;;;;;;19.42;100.00;101446.66;5071015;28;19925;-67
2021/07/08 05:48:16;;;;;;;;;;;;;;;19.54;100.00;101448.91;5072836;28;19978;-68
2021/07/08 05:50:42;;;;;;;;;;;;;;;19.54;100.00;101448.91;5062326;28;20464;-68
2021/07/08 05:53:09;;;;;;;;;;;;;;;19.66;100.00;101452.22;5071756;28;19924;-67
2021/07/08 05:55:36;;;;;;;;;;;;;;;19.73;100.00;101457.94;5076027;28;19943;-68
2021/07/08 05:58:03;;;;;;;;;;;;;;;19.77;100.00;101466.72;5069659;28;19924;-66
2021/07/08 06:00:30;;;;;;;;;;;;;;;19.76;100.00;101465.84;5070754;28;20018;-66
2021/07/08 06:02:56;;;;;;;;;;;;;;;19.79;100.00;101472.91;5072016;28;19964;-67
2021/07/08 06:05:22;;;;;;;;;;;;;;;19.78;100.00;101477.56;5072046;28;20387;-68
2021/07/08 06:07:48;;;;;;;;;;;;;;;19.85;100.00;101484.16;5070776;28;19924;-66
2021/07/08 06:10:15;;;;;;;;;;;;;;;19.86;100.00;101485.91;5071683;28;19929;-66
2021/07/08 06:12:43;;;;;;;;;;;;;;;19.93;100.00;101474.22;5091086;28;19924;-66
2021/07/08 06:15:09;;;;;;;;;;;;;;;19.94;100.00;101487.81;5083061;28;19924;-66
2021/07/08 06:17:36;;;;;;;;;;;;;;;19.96;100.00;101477.47;5072745;28;19928;-66
2021/07/08 06:20:02;;;;;;;;;;;;;;;19.97;100.00;101486.63;5071628;28;20241;-66
2021/07/08 06:22:28;;;;;;;;;;;;;;;19.97;100.00;101497.63;5079001;28;20027;-68
2021/07/08 06:24:54;;;;;;;;;;;;;;;19.98;100.00;101488.34;5090398;28;19924;-67
2021/07/08 06:27:21;;;;;;;;;;;;;;;19.95;100.00;101499.69;5089794;28;19924;-68
2021/07/08 06:29:48;;;;;;;;;;;;;;;19.84;100.00;101503.63;5089851;28;19924;-69
2021/07/08 06:32:17;;;;;;;;;;;;;;;19.70;100.00;101486.66;5086993;28;19928;-69
2021/07/08 06:34:44;;;;;;;;;;;;;;;19.62;100.00;101483.03;5071379;28;19970;-68
2021/07/08 06:37:10;;;;;;;;;;;;;;;19.62;100.00;101489.41;5070884;28;19960;-67
2021/07/08 06:39:36;;;;;;;;;;;;;;;19.57;100.00;101484.41;5072297;28;19929;-67
2021/07/08 06:42:03;;;;;;;;;;;;;;;19.56;100.00;101474.41;5070683;28;19967;-67
2021/07/08 06:44:29;;;;;;;;;;;;;;;19.53;100.00;101484.88;5071595;28;19924;-67
2021/07/08 06:46:57;;;;;;;;;;;;;;;19.53;100.00;101491.25;5069513;28;20379;-66
2021/07/08 06:49:24;;;;;;;;;;;;;;;19.54;100.00;101481.97;5077773;28;19935;-68
2021/07/08 06:51:50;;;;;;;;;;;;;;;19.52;100.00;101481.28;5080855;28;20441;-67
2021/07/08 06:54:16;;;;;;;;;;;;;;;19.49;100.00;101487.09;5075356;28;20088;-67
2021/07/08 06:56:43;;;;;;;;;;;;;;;19.48;100.00;101474.38;5075750;28;19978;-68
2021/07/08 06:59:09;;;;;;;;;;;;;;;19.53;100.00;101495.91;5074825;28;19925;-68
2021/07/08 07:01:35;;;;;;;;;;;;;;;19.54;100.00;101506.75;5081580;28;20371;-68
2021/07/08 07:04:03;;;;;;;;;;;;;;;19.60;100.00;101507.09;5083430;28;20029;-69
2021/07/08 07:06:29;;;;;;;;;;;;;;;19.57;100.00;101503.69;5074801;28;19925;-70
2021/07/08 07:08:56;;;;;;;;;;;;;;;19.55;100.00;101494.69;5075075;28;19925;-70
2021/07/08 07:11:22;;;;;;;;;;;;;;;19.48;100.00;101499.16;5079931;28;20015;-69
2021/07/08 07:13:48;;;;;;;;;;;;;;;19.45;100.00;101488.44;5095258;28;20449;-69
2021/07/08 07:16:14;;;;;;;;;;;;;;;19.46;100.00;101492.94;5087187;28;19933;-69
2021/07/08 07:18:41;;;;;;;;;;;;;;;19.44;100.00;101497.75;5056735;28;19977;-69
2021/07/08 07:21:10;;;;;;;;;;;;;;;19.44;100.00;101507.88;5074136;28;20027;-69
2021/07/08 07:23:37;;;;;;;;;;;;;;;19.41;100.00;101509.09;5093032;28;20376;-69
2021/07/08 07:26:03;;;;;;;;;;;;;;;19.40;100.00;101513.72;5078379;28;20463;-65
2021/07/08 07:28:29;;;;;;;;;;;;;;;19.42;100.00;101512.72;5074506;28;19931;-66
2021/07/08 07:30:56;;;;;;;;;;;;;;;19.44;100.00;101525.28;5080216;28;19924;-66
2021/07/08 07:33:22;;;;;;;;;;;;;;;19.52;100.00;101521.69;5076363;28;19925;-66
2021/07/08 07:35:48;;;;;;;;;;;;;;;19.55;100.00;101525.00;5075567;28;19947;-66
2021/07/08 07:38:18;;;;;;;;;;;;;;;19.55;100.00;101529.66;5074064;28;19955;-66
2021/07/08 07:40:44;;;;;;;;;;;;;;;19.59;100.00;101525.53;5075390;28;20023;-66
2021/07/08 07:43:10;;;;;;;;;;;;;;;19.60;100.00;101523.63;5074905;28;19979;-68
2021/07/08 07:45:37;;;;;;;;;;;;;;;19.68;100.00;101518.16;5075162;28;20403;-66
2021/07/08 07:48:03;;;;;;;;;;;;;;;19.68;100.00;101505.28;5072702;28;19924;-65
2021/07/08 07:50:31;;;;;;;;;;;;;;;19.77;100.00;101514.41;5084696;28;20369;-64
2021/07/08 07:52:57;;;;;;;;;;;;;;;19.85;100.00;101514.47;5077085;28;20407;-64
2021/07/08 07:55:27;;;;;;;;;;;;;;;19.96;100.00;101510.53;5081229;28;19964;-68
2021/07/08 07:57:54;;;;;;;;;;;;;;;19.99;100.00;101490.94;5076931;28;20228;-65
2021/07/08 08:00:20;;;;;;;;;;;;;;;20.07;100.00;101492.84;5073089;28;19925;-65
2021/07/08 08:02:46;;;;;;;;;;;;;;;20.20;100.00;101500.59;5077506;28;19924;-65
2021/07/08 08:05:33;;;;;;;;;;;;;;;20.25;100.00;101492.69;5094052;28;19924;-65
2021/07/08 08:10:45;;;;;;;;;;;;;;;20.19;100.00;101485.97;5074873;28;19925;-65
2021/07/08 08:13:11;;;;;;;;;;;;;;;20.09;100.00;101481.66;5073694;28;19971;-65
2021/07/08 08:15:38;;;;;;;;;;;;;;;19.98;100.00;101477.34;5073826;28;19959;-65
2021/07/08 08:18:04;;;;;;;;;;;;;;;19.92;100.00;101472.47;5073406;28;20315;-65
2021/07/08 08:20:31;;;;;;;;;;;;;;;19.93;100.00;101466.81;5082893;28;19960;-65
2021/07/08 08:22:58;;;;;;;;;;;;;;;20.00;100.00;101469.75;5086797;28;19970;-65
2021/07/08 08:25:24;;;;;;;;;;;;;;;20.16;100.00;101469.78;5092320;28;19968;-65
2021/07/08 08:27:52;;;;;;;;;;;;;;;20.29;100.00;101473.94;5073665;28;19925;-65
2021/07/08 08:30:18;;;;;;;;;;;;;;;20.37;100.00;101466.50;5089434;28;20057;-65
2021/07/08 08:32:45;;;;;;;;;;;;;;;20.52;100.00;101475.00;5091464;28;20410;-65
2021/07/08 08:35:12;;;;;;;;;;;;;;;20.56;100.00;101473.59;5069689;28;19994;-65
2021/07/08 08:37:40;;;;;;;;;;;;;;;20.62;100.00;101479.44;5073210;28;19948;-65
2021/07/08 08:40:07;;;;;;;;;;;;;;;20.61;100.00;101477.75;5073199;28;19929;-65
2021/07/08 08:42:34;;;;;;;;;;;;;;;20.61;100.00;101489.63;5076942;28;19928;-65
2021/07/08 08:45:01;;;;;;;;;;;;;;;20.57;100.00;101497.38;5072700;28;19963;-65
2021/07/08 08:47:28;;;;;;;;;;;;;;;20.55;100.00;101502.22;5073070;28;20021;-66
2021/07/08 08:49:55;;;;;;;;;;;;;;;20.53;100.00;101509.78;5072998;28;20079;-65
2021/07/08 08:52:22;;;;;;;;;;;;;;;20.66;100.00;101512.03;5075155;28;19958;-65
2021/07/08 08:54:51;;;;;;;;;;;;;;;20.71;100.00;101515.19;5076323;28;19925;-65
2021/07/08 08:57:18;;;;;;;;;;;;;;;20.81;100.00;101501.19;5071599;28;19925;-65
2021/07/08 08:59:44;;;;;;;;;;;;;;;20.78;100.00;101498.78;5085865;28;20337;-65
2021/07/08 09:02:12;;;;;;;;;;;;;;;20.78;100.00;101498.78;5072695;28;19960;-65
2021/07/08 09:04:39;;;;;;;;;;;;;;;20.74;100.00;101508.47;5083535;28;19932;-65
2021/07/08 09:07:22;;;;;;;;;;;;;;;20.76;100.00;101508.28;5077522;28;19987;-64
2021/07/08 09:09:48;;;;;;;;;;;;;;;20.73;100.00;101498.44;5073607;28;19924;-64
2021/07/08 09:12:17;;;;;;;;;;;;;;;20.75;100.00;101501.88;5078806;28;20326;-64
2021/07/08 09:14:43;;;;;;;;;;;;;;;20.83;100.00;101504.66;5072316;28;19964;-65
2021/07/08 09:17:17;;;;;;;;;;;;;;;20.98;100.00;101498.41;5072033;28;19935;-65
2021/07/08 09:19:43;;;;;;;;;;;;;;;21.05;100.00;101496.69;5089604;28;20303;-65
2021/07/08 09:22:09;;;;;;;;;;;;;;;21.02;100.00;101494.28;5092434;28;20380;-65
2021/07/08 09:24:36;;;;;;;;;;;;;;;21.14;100.00;101494.75;5057556;28;19925;-65
2021/07/08 09:27:03;;;;;;;;;;;;;;;21.18;100.00;101490.63;5051874;28;19982;-65
2021/07/08 09:29:31;;;;;;;;;;;;;;;21.31;100.00;101474.38;5082719;28;20440;-65
2021/07/08 09:31:58;;;;;;;;;;;;;;;21.49;100.00;101463.09;5089992;28;20363;-65
2021/07/08 09:34:27;;;;;;;;;;;;;;;21.69;100.00;101466.31;5092493;28;20276;-65
2021/07/08 09:37:04;;;;;;;;;;;;;;;21.89;100.00;101461.19;5085668;28;19949;-65
2021/07/08 09:39:31;;;;;;;;;;;;;;;22.04;100.00;101463.16;5089260;28;20373;-65
2021/07/08 09:41:58;;;;;;;;;;;;;;;22.02;100.00;101465.25;5092121;28;19924;-65
2021/07/08 09:44:25;;;;;;;;;;;;;;;22.06;100.00;101470.25;5075000;28;20303;-65
2021/07/08 09:46:52;;;;;;;;;;;;;;;22.18;100.00;101464.28;5071559;28;19935;-65
2021/07/08 09:49:18;;;;;;;;;;;;;;;22.51;100.00;101459.38;5089181;28;20038;-66
2021/07/08 09:51:46;;;;;;;;;;;;;;;22.88;100.00;101449.34;5091847;28;20014;-66
2021/07/08 09:54:14;;;;;;;;;;;;;;;23.06;100.00;101446.25;5077816;28;19959;-66
2021/07/08 09:56:45;;;;;;;;;;;;;;;23.21;100.00;101449.03;5072133;28;19935;-65
2021/07/08 09:59:14;;;;;;;;;;;;;;;23.19;100.00;101442.81;5091760;28;19928;-65
2021/07/08 10:01:41;;;;;;;;;;;;;;;23.30;100.00;101447.00;5090297;28;20422;-66
2021/07/08 10:04:08;;;;;;;;;;;;;;;23.29;100.00;101448.09;5091275;28;19928;-65
2021/07/08 10:06:35;;;;;;;;;;;;;;;23.15;100.00;101454.47;5090528;28;20340;-64
2021/07/08 10:09:03;;;;;;;;;;;;;;;23.09;100.00;101450.53;5084845;28;19923;-72
2021/07/08 10:11:30;;;;;;;;;;;;;;;23.03;100.00;101456.81;5091304;28;19947;-71
2021/07/08 10:13:59;;;;;;;;;;;;;;;23.04;100.00;101450.25;5072622;28;19931;-71
2021/07/08 10:16:26;;;;;;;;;;;;;;;23.05;100.00;101455.59;5071456;28;19925;-71
2021/07/08 10:18:55;;;;;;;;;;;;;;;22.97;100.00;101452.91;5088761;28;19971;-70
2021/07/08 10:21:21;;;;;;;;;;;;;;;22.85;100.00;101465.47;5074844;28;19959;-70
2021/07/08 10:23:48;;;;;;;;;;;;;;;22.53;100.00;101473.91;5069728;28;20010;-71
2021/07/08 10:26:16;;;;;;;;;;;;;;;22.39;100.00;101472.81;5080166;28;19935;-71
2021/07/08 10:28:44;;;;;;;;;;;;;;;22.45;100.00;101473.09;5071121;28;19978;-71
2021/07/08 10:31:13;;;;;;;;;;;;;;;22.62;100.00;101476.59;5069958;28;19982;-71
2021/07/08 10:33:41;;;;;;;;;;;;;;;22.82;100.00;101479.69;5070542;28;21515;-71
2021/07/08 10:36:07;;;;;;;;;;;;;;;22.93;100.00;101493.09;5071218;28;19932;-70
2021/07/08 10:38:37;;;;;;;;;;;;;;;22.83;100.00;101490.56;5077554;28;19963;-71
2021/07/08 10:41:19;;;;;;;;;;;;;;;22.71;100.00;101497.59;5091005;28;19978;-72
2021/07/08 10:43:46;;;;;;;;;;;;;;;22.64;100.00;101502.19;5082957;28;19968;-73
2021/07/08 10:46:13;;;;;;;;;;;;;;;22.49;100.00;101485.50;5071085;28;19932;-72
2021/07/08 10:48:40;;;;;;;;;;;;;;;22.32;100.00;101490.28;5077261;28;19931;-72
2021/07/08 10:51:07;;;;;;;;;;;;;;;22.06;100.00;101486.81;5089319;28;19924;-72
2021/07/08 10:53:35;;;;;;;;;;;;;;;21.88;100.00;101494.53;5091079;28;19962;-72
2021/07/08 10:56:02;;;;;;;;;;;;;;;21.57;100.00;101496.22;5074057;28;19955;-72
2021/07/08 10:58:46;;;;;;;;;;;;;;;21.41;100.00;101499.88;5091324;28;19924;-72
2021/07/08 11:01:33;;;;;;;;;;;;;;;21.30;100.00;101499.38;5089579;28;20375;-71
2021/07/08 11:04:01;;;;;;;;;;;;;;;21.12;100.00;101492.19;5081070;28;19970;-71
2021/07/08 11:06:28;;;;;;;;;;;;;;;21.11;100.00;101493.25;5071233;28;20392;-71
2021/07/08 11:08:57;;;;;;;;;;;;;;;21.07;100.00;101489.09;5070725;28;20048;-72
2021/07/08 11:11:42;;;;;;;;;;;;;;;20.99;100.00;101469.78;5083154;28;20498;-72
2021/07/08 11:14:25;;;;;;;;;;;;;;;21.01;100.00;101476.84;5070907;28;20443;-71
2021/07/08 11:16:54;;;;;;;;;;;;;;;21.02;100.00;101474.97;5070854;28;19968;-72
2021/07/08 11:19:31;;;;;;;;;;;;;;;21.11;100.00;101479.44;5071035;28;19978;-71
2021/07/08 11:21:58;;;;;;;;;;;;;;;21.26;100.00;101475.94;5078301;28;19967;-71
2021/07/08 11:24:25;;;;;;;;;;;;;;;21.39;100.00;101474.34;5074294;28;19959;-71
2021/07/08 11:26:52;;;;;;;;;;;;;;;21.43;100.00;101479.50;5070506;28;19968;-71
2021/07/08 11:29:31;;;;;;;;;;;;;;;21.39;100.00;101488.16;5071204;28;19924;-71
2021/07/08 11:31:59;;;;;;;;;;;;;;;21.37;100.00;101476.41;5070331;28;20036;-71
2021/07/08 11:34:25;;;;;;;;;;;;;;;21.40;100.00;101473.28;5075752;28;19925;-71
2021/07/08 11:36:53;;;;;;;;;;;;;;;21.46;100.00;101482.78;5084361;28;19924;-70
2021/07/08 11:39:23;;;;;;;;;;;;;;;21.60;100.00;101477.56;5077465;28;20543;-70
2021/07/08 11:41:51;;;;;;;;;;;;;;;21.64;100.00;101477.03;5075169;28;20260;-70
2021/07/08 11:44:19;;;;;;;;;;;;;;;21.76;100.00;101488.53;5094805;28;20296;-70
2021/07/08 11:46:47;;;;;;;;;;;;;;;21.88;100.00;101491.75;5086386;28;19928;-70
2021/07/08 11:49:16;;;;;;;;;;;;;;;22.03;100.00;101483.56;5079620;28;20358;-70
2021/07/08 11:51:43;;;;;;;;;;;;;;;22.19;100.00;101469.66;5080846;28;19924;-70
2021/07/08 11:54:09;;;;;;;;;;;;;;;22.38;100.00;101465.56;5094480;28;19963;-70
2021/07/08 11:56:35;;;;;;;;;;;;;;;22.55;100.00;101469.06;5092452;28;19977;-70
2021/07/08 11:59:05;;;;;;;;;;;;;;;22.61;100.00;101466.56;5084274;28;19972;-71
2021/07/08 12:01:31;;;;;;;;;;;;;;;22.75;100.00;101465.75;5079116;28;19928;-70
2021/07/08 12:03:59;;;;;;;;;;;;;;;22.70;100.00;101457.16;5087747;28;20441;-70
2021/07/08 12:06:28;;;;;;;;;;;;;;;22.73;100.00;101465.94;5094130;28;19930;-71
2021/07/08 12:08:57;;;;;;;;;;;;;;;22.70;100.00;101463.56;5092179;28;19930;-72
2021/07/08 12:11:28;;;;;;;;;;;;;;;22.67;100.00;101460.28;5090728;28;19977;-71
2021/07/08 12:13:55;;;;;;;;;;;;;;;22.55;100.00;101449.69;5073886;28;20009;-71
2021/07/08 12:16:27;;;;;;;;;;;;;;;22.48;100.00;101450.63;5083760;28;20383;-72
2021/07/08 12:18:54;;;;;;;;;;;;;;;22.29;100.00;101455.56;5091979;28;20029;-72
2021/07/08 12:21:22;;;;;;;;;;;;;;;21.99;100.00;101460.09;5093745;28;19924;-71
2021/07/08 12:23:49;;;;;;;;;;;;;;;21.73;100.00;101459.38;5089659;28;20303;-72
2021/07/08 12:26:26;;;;;;;;;;;;;;;21.59;100.00;101465.66;5073356;28;19959;-71
2021/07/08 12:29:08;;;;;;;;;;;;;;;21.44;100.00;101464.66;5060576;28;19934;-71
2021/07/08 12:31:40;;;;;;;;;;;;;;;21.36;100.00;101460.03;5073049;28;20307;-71